sensor_id;sensor_type;location;lat;lon;timestamp;P1;durP1;ratioP1;P2;durP2;ratioP2
3943;SDS011;1986;52.546;13.428;2022-07-12T00:01:17;19.30;;;18.30;;
3943;SDS011;1986;52.546;13.428;2022-07-12T00:03:44;19.20;;;18.20;;
3943;SDS011;1986;52.546;13.428;2022-07-12T00:06:12;19.30;;;18.30;;
3943;SDS011;1986;52.546;13.428;2022-07-12T00:08:39;19.30;;;18.30;;
3943;SDS011;1986;52.546;13.428;2022-07-12T00:11:08;19.40;;;18.40;;
3943;SDS011;1986;52.546;13.428;2022-07-12T00:13:35;19.43;;;18.43;;
3943;SDS011;1986;52.546;13.428;2022-07-12T00:16:02;19.40;;;18.40;;
3943;SDS011;1986;52.546;13.428;2022-07-12T00:18:29;19.40;;;18.40;;
3943;SDS011;1986;52.546;13.428;2022-07-12T00:20:56;19.60;;;18.60;;
3943;SDS011;1986;52.546;13.428;2022-07-12T00:23:23;20.37;;;19.27;;
3943;SDS011;1986;52.546;13.428;2022-07-12T00:25:50;20.00;;;19.00;;
3943;SDS011;1986;52.546;13.428;2022-07-12T00:28:18;20.80;;;19.70;;
3943;SDS011;1986;52.546;13.428;2022-07-12T00:30:45;19.93;;;18.90;;
3943;SDS011;1986;52.546;13.428;2022-07-12T00:33:12;25.83;;;19.20;;
3943;SDS011;1986;52.546;13.428;2022-07-12T00:35:39;19.63;;;18.63;;
3943;SDS011;1986;52.546;13.428;2022-07-12T00:38:06;19.60;;;18.60;;
3943;SDS011;1986;52.546;13.428;2022-07-12T00:40:33;19.63;;;18.60;;
3943;SDS011;1986;52.546;13.428;2022-07-12T00:43:00;19.83;;;18.83;;
3943;SDS011;1986;52.546;13.428;2022-07-12T00:45:28;19.87;;;18.77;;
3943;SDS011;1986;52.546;13.428;2022-07-12T00:47:55;19.60;;;18.60;;
3943;SDS011;1986;52.546;13.428;2022-07-12T00:50:24;19.60;;;18.60;;
3943;SDS011;1986;52.546;13.428;2022-07-12T00:52:52;19.40;;;18.40;;
3943;SDS011;1986;52.546;13.428;2022-07-12T00:55:21;18.80;;;17.80;;
3943;SDS011;1986;52.546;13.428;2022-07-12T00:57:49;19.60;;;18.60;;
3943;SDS011;1986;52.546;13.428;2022-07-12T01:00:18;19.20;;;18.20;;
3943;SDS011;1986;52.546;13.428;2022-07-12T01:02:49;18.73;;;17.83;;
3943;SDS011;1986;52.546;13.428;2022-07-12T01:05:16;19.10;;;18.10;;
3943;SDS011;1986;52.546;13.428;2022-07-12T01:07:43;19.30;;;18.30;;
3943;SDS011;1986;52.546;13.428;2022-07-12T01:10:11;19.90;;;18.80;;
3943;SDS011;1986;52.546;13.428;2022-07-12T01:12:38;19.30;;;18.30;;
3943;SDS011;1986;52.546;13.428;2022-07-12T01:15:05;19.40;;;18.40;;
3943;SDS011;1986;52.546;13.428;2022-07-12T01:17:34;19.37;;;18.37;;
3943;SDS011;1986;52.546;13.428;2022-07-12T01:20:03;19.27;;;18.30;;
3943;SDS011;1986;52.546;13.428;2022-07-12T01:22:33;19.40;;;18.40;;
3943;SDS011;1986;52.546;13.428;2022-07-12T01:25:03;18.87;;;17.97;;
3943;SDS011;1986;52.546;13.428;2022-07-12T01:27:31;19.13;;;18.13;;
3943;SDS011;1986;52.546;13.428;2022-07-12T01:29:59;19.10;;;18.10;;
3943;SDS011;1986;52.546;13.428;2022-07-12T01:32:27;19.37;;;18.37;;
3943;SDS011;1986;52.546;13.428;2022-07-12T01:34:56;19.30;;;18.30;;
3943;SDS011;1986;52.546;13.428;2022-07-12T01:37:24;18.70;;;17.80;;
3943;SDS011;1986;52.546;13.428;2022-07-12T01:39:57;18.23;;;17.33;;
3943;SDS011;1986;52.546;13.428;2022-07-12T01:42:28;18.30;;;17.40;;
3943;SDS011;1986;52.546;13.428;2022-07-12T01:44:56;18.20;;;17.30;;
3943;SDS011;1986;52.546;13.428;2022-07-12T01:47:27;18.10;;;17.20;;
3943;SDS011;1986;52.546;13.428;2022-07-12T01:49:55;17.70;;;16.90;;
3943;SDS011;1986;52.546;13.428;2022-07-12T01:52:22;17.73;;;16.90;;
3943;SDS011;1986;52.546;13.428;2022-07-12T01:54:49;17.57;;;16.77;;
3943;SDS011;1986;52.546;13.428;2022-07-12T01:57:17;18.03;;;17.13;;
3943;SDS011;1986;52.546;13.428;2022-07-12T01:59:46;18.30;;;17.40;;
3943;SDS011;1986;52.546;13.428;2022-07-12T02:02:14;17.90;;;17.00;;
3943;SDS011;1986;52.546;13.428;2022-07-12T02:04:41;18.10;;;17.20;;
3943;SDS011;1986;52.546;13.428;2022-07-12T02:07:08;18.83;;;17.93;;
3943;SDS011;1986;52.546;13.428;2022-07-12T02:09:35;18.50;;;17.60;;
3943;SDS011;1986;52.546;13.428;2022-07-12T02:12:02;17.80;;;17.00;;
3943;SDS011;1986;52.546;13.428;2022-07-12T02:14:29;18.20;;;17.30;;
3943;SDS011;1986;52.546;13.428;2022-07-12T02:16:58;20.23;;;18.50;;
3943;SDS011;1986;52.546;13.428;2022-07-12T02:19:24;18.07;;;17.23;;
3943;SDS011;1986;52.546;13.428;2022-07-12T02:21:52;18.30;;;17.40;;
3943;SDS011;1986;52.546;13.428;2022-07-12T02:24:19;18.43;;;17.53;;
3943;SDS011;1986;52.546;13.428;2022-07-12T02:26:46;18.43;;;17.53;;
3943;SDS011;1986;52.546;13.428;2022-07-12T02:29:13;18.30;;;17.40;;
3943;SDS011;1986;52.546;13.428;2022-07-12T02:31:43;18.43;;;17.53;;
3943;SDS011;1986;52.546;13.428;2022-07-12T02:34:11;18.30;;;17.40;;
3943;SDS011;1986;52.546;13.428;2022-07-12T02:36:38;19.70;;;18.53;;
3943;SDS011;1986;52.546;13.428;2022-07-12T02:39:08;18.20;;;17.30;;
3943;SDS011;1986;52.546;13.428;2022-07-12T02:41:36;18.10;;;17.20;;
3943;SDS011;1986;52.546;13.428;2022-07-12T02:44:03;18.20;;;17.30;;
3943;SDS011;1986;52.546;13.428;2022-07-12T02:46:30;17.70;;;16.90;;
3943;SDS011;1986;52.546;13.428;2022-07-12T02:48:57;17.60;;;16.80;;
3943;SDS011;1986;52.546;13.428;2022-07-12T02:51:26;17.60;;;16.80;;
3943;SDS011;1986;52.546;13.428;2022-07-12T02:53:52;17.77;;;16.97;;
3943;SDS011;1986;52.546;13.428;2022-07-12T02:56:25;17.80;;;17.00;;
3943;SDS011;1986;52.546;13.428;2022-07-12T02:58:52;17.47;;;16.67;;
3943;SDS011;1986;52.546;13.428;2022-07-12T03:01:19;17.70;;;16.90;;
3943;SDS011;1986;52.546;13.428;2022-07-12T03:03:46;17.80;;;17.00;;
3943;SDS011;1986;52.546;13.428;2022-07-12T03:06:13;17.70;;;16.90;;
3943;SDS011;1986;52.546;13.428;2022-07-12T03:08:41;17.50;;;16.70;;
3943;SDS011;1986;52.546;13.428;2022-07-12T03:11:08;17.60;;;16.80;;
3943;SDS011;1986;52.546;13.428;2022-07-12T03:13:35;17.50;;;16.70;;
3943;SDS011;1986;52.546;13.428;2022-07-12T03:16:02;18.00;;;17.10;;
3943;SDS011;1986;52.546;13.428;2022-07-12T03:18:29;17.90;;;17.00;;
3943;SDS011;1986;52.546;13.428;2022-07-12T03:20:56;17.80;;;17.00;;
3943;SDS011;1986;52.546;13.428;2022-07-12T03:23:23;17.80;;;17.00;;
3943;SDS011;1986;52.546;13.428;2022-07-12T03:25:52;19.17;;;17.87;;
3943;SDS011;1986;52.546;13.428;2022-07-12T03:28:20;18.40;;;17.50;;
3943;SDS011;1986;52.546;13.428;2022-07-12T03:30:46;18.23;;;17.33;;
3943;SDS011;1986;52.546;13.428;2022-07-12T03:33:13;18.00;;;17.10;;
3943;SDS011;1986;52.546;13.428;2022-07-12T03:35:40;19.73;;;18.63;;
3943;SDS011;1986;52.546;13.428;2022-07-12T03:38:10;18.00;;;17.10;;
3943;SDS011;1986;52.546;13.428;2022-07-12T03:40:37;18.20;;;17.30;;
3943;SDS011;1986;52.546;13.428;2022-07-12T03:43:05;19.53;;;18.53;;
3943;SDS011;1986;52.546;13.428;2022-07-12T03:45:33;18.57;;;17.63;;
3943;SDS011;1986;52.546;13.428;2022-07-12T03:47:59;18.40;;;17.50;;
3943;SDS011;1986;52.546;13.428;2022-07-12T03:50:26;18.43;;;17.53;;
3943;SDS011;1986;52.546;13.428;2022-07-12T03:52:53;17.97;;;17.07;;
3943;SDS011;1986;52.546;13.428;2022-07-12T03:55:20;18.00;;;17.20;;
3943;SDS011;1986;52.546;13.428;2022-07-12T03:57:48;18.27;;;17.37;;
3943;SDS011;1986;52.546;13.428;2022-07-12T04:00:16;19.13;;;17.57;;
3943;SDS011;1986;52.546;13.428;2022-07-12T04:02:43;18.53;;;17.43;;
3943;SDS011;1986;52.546;13.428;2022-07-12T04:05:10;18.37;;;17.47;;
3943;SDS011;1986;52.546;13.428;2022-07-12T04:07:38;18.07;;;17.17;;
3943;SDS011;1986;52.546;13.428;2022-07-12T04:10:05;17.83;;;17.03;;
3943;SDS011;1986;52.546;13.428;2022-07-12T04:12:33;18.00;;;17.10;;
3943;SDS011;1986;52.546;13.428;2022-07-12T04:15:00;18.60;;;17.70;;
3943;SDS011;1986;52.546;13.428;2022-07-12T04:17:29;18.97;;;17.97;;
3943;SDS011;1986;52.546;13.428;2022-07-12T04:19:55;19.57;;;18.47;;
3943;SDS011;1986;52.546;13.428;2022-07-12T04:22:22;18.93;;;17.93;;
3943;SDS011;1986;52.546;13.428;2022-07-12T04:24:49;19.27;;;18.27;;
3943;SDS011;1986;52.546;13.428;2022-07-12T04:27:16;19.63;;;18.57;;
3943;SDS011;1986;52.546;13.428;2022-07-12T04:29:43;19.80;;;18.70;;
3943;SDS011;1986;52.546;13.428;2022-07-12T04:32:10;20.27;;;19.17;;
3943;SDS011;1986;52.546;13.428;2022-07-12T04:34:38;21.30;;;20.10;;
3943;SDS011;1986;52.546;13.428;2022-07-12T04:37:05;22.03;;;20.73;;
3943;SDS011;1986;52.546;13.428;2022-07-12T04:39:32;20.50;;;19.40;;
3943;SDS011;1986;52.546;13.428;2022-07-12T04:41:59;23.17;;;21.67;;
3943;SDS011;1986;52.546;13.428;2022-07-12T04:44:26;20.87;;;19.77;;
3943;SDS011;1986;52.546;13.428;2022-07-12T04:46:53;20.90;;;19.70;;
3943;SDS011;1986;52.546;13.428;2022-07-12T04:49:20;22.43;;;20.77;;
3943;SDS011;1986;52.546;13.428;2022-07-12T04:51:48;22.80;;;21.40;;
3943;SDS011;1986;52.546;13.428;2022-07-12T04:54:15;22.57;;;21.17;;
3943;SDS011;1986;52.546;13.428;2022-07-12T04:56:42;21.13;;;19.90;;
3943;SDS011;1986;52.546;13.428;2022-07-12T04:59:09;21.50;;;20.30;;
3943;SDS011;1986;52.546;13.428;2022-07-12T05:01:36;21.93;;;20.73;;
3943;SDS011;1986;52.546;13.428;2022-07-12T05:04:03;22.03;;;20.73;;
3943;SDS011;1986;52.546;13.428;2022-07-12T05:06:30;23.57;;;21.83;;
3943;SDS011;1986;52.546;13.428;2022-07-12T05:08:59;22.07;;;20.77;;
3943;SDS011;1986;52.546;13.428;2022-07-12T05:11:26;22.70;;;21.30;;
3943;SDS011;1986;52.546;13.428;2022-07-12T05:13:53;22.60;;;21.20;;
3943;SDS011;1986;52.546;13.428;2022-07-12T05:16:20;22.60;;;21.20;;
3943;SDS011;1986;52.546;13.428;2022-07-12T05:18:47;22.50;;;21.10;;
3943;SDS011;1986;52.546;13.428;2022-07-12T05:21:14;22.80;;;21.40;;
3943;SDS011;1986;52.546;13.428;2022-07-12T05:23:41;23.40;;;21.93;;
3943;SDS011;1986;52.546;13.428;2022-07-12T05:26:09;23.47;;;21.97;;
3943;SDS011;1986;52.546;13.428;2022-07-12T05:28:36;24.60;;;23.00;;
3943;SDS011;1986;52.546;13.428;2022-07-12T05:31:11;24.03;;;22.43;;
3943;SDS011;1986;52.546;13.428;2022-07-12T05:33:38;24.43;;;22.83;;
3943;SDS011;1986;52.546;13.428;2022-07-12T05:36:06;25.40;;;23.70;;
3943;SDS011;1986;52.546;13.428;2022-07-12T05:38:34;26.17;;;24.27;;
3943;SDS011;1986;52.546;13.428;2022-07-12T05:41:00;25.83;;;24.10;;
3943;SDS011;1986;52.546;13.428;2022-07-12T05:43:29;26.87;;;25.07;;
3943;SDS011;1986;52.546;13.428;2022-07-12T05:45:56;26.97;;;25.17;;
3943;SDS011;1986;52.546;13.428;2022-07-12T05:48:23;26.93;;;25.13;;
3943;SDS011;1986;52.546;13.428;2022-07-12T05:50:51;30.73;;;24.93;;
3943;SDS011;1986;52.546;13.428;2022-07-12T05:53:18;26.97;;;25.17;;
3943;SDS011;1986;52.546;13.428;2022-07-12T05:55:47;27.07;;;25.17;;
3943;SDS011;1986;52.546;13.428;2022-07-12T05:58:14;28.27;;;26.27;;
3943;SDS011;1986;52.546;13.428;2022-07-12T06:00:42;41.20;;;37.50;;
3943;SDS011;1986;52.546;13.428;2022-07-12T06:03:09;43.77;;;39.87;;
3943;SDS011;1986;52.546;13.428;2022-07-12T06:05:36;33.40;;;30.60;;
3943;SDS011;1986;52.546;13.428;2022-07-12T06:08:03;33.50;;;30.90;;
3943;SDS011;1986;52.546;13.428;2022-07-12T06:10:31;32.57;;;30.07;;
3943;SDS011;1986;52.546;13.428;2022-07-12T06:12:59;28.70;;;26.53;;
3943;SDS011;1986;52.546;13.428;2022-07-12T06:15:26;29.30;;;26.80;;
3943;SDS011;1986;52.546;13.428;2022-07-12T06:17:54;27.40;;;25.40;;
3943;SDS011;1986;52.546;13.428;2022-07-12T06:20:22;27.70;;;25.70;;
3943;SDS011;1986;52.546;13.428;2022-07-12T06:22:49;28.10;;;26.10;;
3943;SDS011;1986;52.546;13.428;2022-07-12T06:25:16;28.53;;;26.43;;
3943;SDS011;1986;52.546;13.428;2022-07-12T06:27:43;28.20;;;26.20;;
3943;SDS011;1986;52.546;13.428;2022-07-12T06:30:14;29.30;;;27.20;;
3943;SDS011;1986;52.546;13.428;2022-07-12T06:32:41;29.63;;;27.37;;
3943;SDS011;1986;52.546;13.428;2022-07-12T06:35:10;28.50;;;26.40;;
3943;SDS011;1986;52.546;13.428;2022-07-12T06:37:37;28.53;;;26.00;;
3943;SDS011;1986;52.546;13.428;2022-07-12T06:40:04;28.13;;;26.03;;
3943;SDS011;1986;52.546;13.428;2022-07-12T06:42:32;29.30;;;27.00;;
3943;SDS011;1986;52.546;13.428;2022-07-12T06:44:59;29.60;;;27.50;;
3943;SDS011;1986;52.546;13.428;2022-07-12T06:47:26;28.70;;;26.60;;
3943;SDS011;1986;52.546;13.428;2022-07-12T06:49:53;28.70;;;26.50;;
3943;SDS011;1986;52.546;13.428;2022-07-12T06:52:21;29.37;;;27.13;;
3943;SDS011;1986;52.546;13.428;2022-07-12T06:54:48;29.13;;;26.93;;
3943;SDS011;1986;52.546;13.428;2022-07-12T06:57:15;28.23;;;26.13;;
3943;SDS011;1986;52.546;13.428;2022-07-12T06:59:42;29.50;;;27.30;;
3943;SDS011;1986;52.546;13.428;2022-07-12T07:02:09;30.67;;;28.37;;
3943;SDS011;1986;52.546;13.428;2022-07-12T07:04:36;29.50;;;27.30;;
3943;SDS011;1986;52.546;13.428;2022-07-12T07:07:06;30.17;;;27.97;;
3943;SDS011;1986;52.546;13.428;2022-07-12T07:09:34;31.07;;;28.67;;
3943;SDS011;1986;52.546;13.428;2022-07-12T07:12:01;30.37;;;28.17;;
3943;SDS011;1986;52.546;13.428;2022-07-12T07:14:28;29.83;;;27.63;;
3943;SDS011;1986;52.546;13.428;2022-07-12T07:16:55;29.40;;;27.30;;
3943;SDS011;1986;52.546;13.428;2022-07-12T07:19:22;29.10;;;27.07;;
3943;SDS011;1986;52.546;13.428;2022-07-12T07:21:52;28.93;;;26.83;;
3943;SDS011;1986;52.546;13.428;2022-07-12T07:24:19;28.90;;;26.80;;
3943;SDS011;1986;52.546;13.428;2022-07-12T07:26:48;29.60;;;27.40;;
3943;SDS011;1986;52.546;13.428;2022-07-12T07:29:16;28.30;;;26.20;;
3943;SDS011;1986;52.546;13.428;2022-07-12T07:32:00;29.57;;;27.53;;
3943;SDS011;1986;52.546;13.428;2022-07-12T07:34:27;28.60;;;26.10;;
3943;SDS011;1986;52.546;13.428;2022-07-12T07:36:54;28.50;;;26.40;;
3943;SDS011;1986;52.546;13.428;2022-07-12T07:39:21;28.77;;;26.67;;
3943;SDS011;1986;52.546;13.428;2022-07-12T07:41:52;29.80;;;27.60;;
3943;SDS011;1986;52.546;13.428;2022-07-12T07:44:19;31.07;;;28.43;;
3943;SDS011;1986;52.546;13.428;2022-07-12T07:46:48;29.60;;;27.10;;
3943;SDS011;1986;52.546;13.428;2022-07-12T07:49:15;28.93;;;26.73;;
3943;SDS011;1986;52.546;13.428;2022-07-12T07:51:42;28.83;;;26.80;;
3943;SDS011;1986;52.546;13.428;2022-07-12T07:54:09;28.00;;;26.00;;
3943;SDS011;1986;52.546;13.428;2022-07-12T07:56:35;28.70;;;26.60;;
3943;SDS011;1986;52.546;13.428;2022-07-12T07:59:04;29.60;;;27.50;;
3943;SDS011;1986;52.546;13.428;2022-07-12T08:01:32;28.60;;;26.50;;
3943;SDS011;1986;52.546;13.428;2022-07-12T08:04:10;30.00;;;27.70;;
3943;SDS011;1986;52.546;13.428;2022-07-12T08:06:37;28.80;;;26.60;;
3943;SDS011;1986;52.546;13.428;2022-07-12T08:09:04;30.77;;;28.47;;
3943;SDS011;1986;52.546;13.428;2022-07-12T08:11:31;31.57;;;29.23;;
3943;SDS011;1986;52.546;13.428;2022-07-12T08:13:59;31.13;;;28.93;;
3943;SDS011;1986;52.546;13.428;2022-07-12T08:16:27;31.20;;;29.00;;
3943;SDS011;1986;52.546;13.428;2022-07-12T08:18:54;32.10;;;29.90;;
3943;SDS011;1986;52.546;13.428;2022-07-12T08:21:21;31.27;;;29.07;;
3943;SDS011;1986;52.546;13.428;2022-07-12T08:23:48;31.90;;;29.60;;
3943;SDS011;1986;52.546;13.428;2022-07-12T08:26:15;31.30;;;29.10;;
3943;SDS011;1986;52.546;13.428;2022-07-12T08:28:42;32.30;;;30.00;;
3943;SDS011;1986;52.546;13.428;2022-07-12T08:31:09;30.83;;;28.63;;
3943;SDS011;1986;52.546;13.428;2022-07-12T08:33:39;32.03;;;29.63;;
3943;SDS011;1986;52.546;13.428;2022-07-12T08:36:07;30.20;;;28.03;;
3943;SDS011;1986;52.546;13.428;2022-07-12T08:38:34;30.80;;;28.67;;
3943;SDS011;1986;52.546;13.428;2022-07-12T08:41:03;31.33;;;29.17;;
3943;SDS011;1986;52.546;13.428;2022-07-12T08:43:32;30.23;;;28.10;;
3943;SDS011;1986;52.546;13.428;2022-07-12T08:46:03;29.70;;;27.60;;
3943;SDS011;1986;52.546;13.428;2022-07-12T08:48:31;30.90;;;28.70;;
3943;SDS011;1986;52.546;13.428;2022-07-12T08:51:04;31.40;;;29.10;;
3943;SDS011;1986;52.546;13.428;2022-07-12T08:53:32;31.93;;;29.63;;
3943;SDS011;1986;52.546;13.428;2022-07-12T08:56:00;34.57;;;32.27;;
3943;SDS011;1986;52.546;13.428;2022-07-12T08:58:29;32.83;;;30.40;;
3943;SDS011;1986;52.546;13.428;2022-07-12T09:00:56;33.47;;;31.07;;
3943;SDS011;1986;52.546;13.428;2022-07-12T09:03:23;33.60;;;31.20;;
3943;SDS011;1986;52.546;13.428;2022-07-12T09:05:56;33.10;;;30.70;;
3943;SDS011;1986;52.546;13.428;2022-07-12T09:08:26;32.00;;;29.80;;
3943;SDS011;1986;52.546;13.428;2022-07-12T09:10:56;31.47;;;29.17;;
3943;SDS011;1986;52.546;13.428;2022-07-12T09:16:15;33.13;;;30.83;;
3943;SDS011;1986;52.546;13.428;2022-07-12T09:18:44;32.60;;;30.37;;
3943;SDS011;1986;52.546;13.428;2022-07-12T09:21:20;31.60;;;29.20;;
3943;SDS011;1986;52.546;13.428;2022-07-12T09:23:52;31.97;;;29.67;;
3943;SDS011;1986;52.546;13.428;2022-07-12T09:26:21;32.67;;;30.37;;
3943;SDS011;1986;52.546;13.428;2022-07-12T09:28:48;32.13;;;29.93;;
3943;SDS011;1986;52.546;13.428;2022-07-12T09:31:17;31.10;;;29.00;;
3943;SDS011;1986;52.546;13.428;2022-07-12T09:34:00;31.37;;;29.17;;
3943;SDS011;1986;52.546;13.428;2022-07-12T09:36:54;30.57;;;28.37;;
3943;SDS011;1986;52.546;13.428;2022-07-12T09:39:23;31.30;;;29.10;;
3943;SDS011;1986;52.546;13.428;2022-07-12T09:41:52;31.80;;;29.50;;
3943;SDS011;1986;52.546;13.428;2022-07-12T09:44:20;33.10;;;30.50;;
3943;SDS011;1986;52.546;13.428;2022-07-12T09:46:47;32.30;;;30.00;;
3943;SDS011;1986;52.546;13.428;2022-07-12T09:49:14;31.10;;;28.80;;
3943;SDS011;1986;52.546;13.428;2022-07-12T09:51:45;30.57;;;28.10;;
3943;SDS011;1986;52.546;13.428;2022-07-12T09:54:14;30.87;;;28.37;;
3943;SDS011;1986;52.546;13.428;2022-07-12T09:56:49;31.60;;;29.40;;
3943;SDS011;1986;52.546;13.428;2022-07-12T09:59:22;30.27;;;28.07;;
3943;SDS011;1986;52.546;13.428;2022-07-12T10:01:50;30.50;;;28.20;;
3943;SDS011;1986;52.546;13.428;2022-07-12T10:04:21;29.33;;;27.23;;
3943;SDS011;1986;52.546;13.428;2022-07-12T10:06:48;30.57;;;28.37;;
3943;SDS011;1986;52.546;13.428;2022-07-12T10:09:16;32.13;;;29.70;;
3943;SDS011;1986;52.546;13.428;2022-07-12T10:11:44;31.57;;;29.37;;
3943;SDS011;1986;52.546;13.428;2022-07-12T10:14:12;30.80;;;28.70;;
3943;SDS011;1986;52.546;13.428;2022-07-12T10:16:41;30.97;;;28.77;;
3943;SDS011;1986;52.546;13.428;2022-07-12T10:19:21;32.03;;;29.73;;
3943;SDS011;1986;52.546;13.428;2022-07-12T10:21:49;31.53;;;29.23;;
3943;SDS011;1986;52.546;13.428;2022-07-12T10:27:27;31.13;;;28.93;;
3943;SDS011;1986;52.546;13.428;2022-07-12T10:30:13;30.67;;;28.47;;
3943;SDS011;1986;52.546;13.428;2022-07-12T10:32:42;30.87;;;28.67;;
3943;SDS011;1986;52.546;13.428;2022-07-12T10:35:15;30.73;;;28.63;;
3943;SDS011;1986;52.546;13.428;2022-07-12T10:40:42;31.43;;;29.23;;
3943;SDS011;1986;52.546;13.428;2022-07-12T10:43:17;32.17;;;29.87;;
3943;SDS011;1986;52.546;13.428;2022-07-12T10:46:16;30.00;;;27.80;;
3943;SDS011;1986;52.546;13.428;2022-07-12T10:48:45;30.47;;;28.27;;
3943;SDS011;1986;52.546;13.428;2022-07-12T10:51:13;32.23;;;29.93;;
3943;SDS011;1986;52.546;13.428;2022-07-12T10:53:41;31.43;;;29.13;;
3943;SDS011;1986;52.546;13.428;2022-07-12T10:56:11;30.93;;;28.73;;
3943;SDS011;1986;52.546;13.428;2022-07-12T10:58:41;33.10;;;30.43;;
3943;SDS011;1986;52.546;13.428;2022-07-12T11:01:11;32.20;;;29.90;;
3943;SDS011;1986;52.546;13.428;2022-07-12T11:03:41;32.87;;;30.47;;
3943;SDS011;1986;52.546;13.428;2022-07-12T11:06:09;32.37;;;30.07;;
3943;SDS011;1986;52.546;13.428;2022-07-12T11:08:47;31.30;;;29.00;;
3943;SDS011;1986;52.546;13.428;2022-07-12T11:11:14;30.10;;;27.90;;
3943;SDS011;1986;52.546;13.428;2022-07-12T11:13:42;31.87;;;29.57;;
3943;SDS011;1986;52.546;13.428;2022-07-12T11:16:09;31.60;;;29.30;;
3943;SDS011;1986;52.546;13.428;2022-07-12T11:18:36;32.40;;;30.10;;
3943;SDS011;1986;52.546;13.428;2022-07-12T11:21:05;34.80;;;32.30;;
3943;SDS011;1986;52.546;13.428;2022-07-12T11:23:32;31.70;;;29.40;;
3943;SDS011;1986;52.546;13.428;2022-07-12T11:26:00;33.17;;;30.17;;
3943;SDS011;1986;52.546;13.428;2022-07-12T11:28:28;31.87;;;29.57;;
3943;SDS011;1986;52.546;13.428;2022-07-12T11:31:01;32.53;;;30.13;;
3943;SDS011;1986;52.546;13.428;2022-07-12T11:33:29;33.30;;;30.90;;
3943;SDS011;1986;52.546;13.428;2022-07-12T11:35:58;32.70;;;30.40;;
3943;SDS011;1986;52.546;13.428;2022-07-12T11:38:27;32.37;;;30.17;;
3943;SDS011;1986;52.546;13.428;2022-07-12T11:40:54;32.50;;;30.30;;
3943;SDS011;1986;52.546;13.428;2022-07-12T11:43:22;33.13;;;30.83;;
3943;SDS011;1986;52.546;13.428;2022-07-12T11:45:50;32.20;;;29.90;;
3943;SDS011;1986;52.546;13.428;2022-07-12T11:48:18;31.93;;;29.73;;
3943;SDS011;1986;52.546;13.428;2022-07-12T11:50:45;33.00;;;30.70;;
3943;SDS011;1986;52.546;13.428;2022-07-12T11:53:16;31.13;;;28.83;;
3943;SDS011;1986;52.546;13.428;2022-07-12T11:55:46;32.33;;;30.00;;
3943;SDS011;1986;52.546;13.428;2022-07-12T11:58:15;32.33;;;30.03;;
3943;SDS011;1986;52.546;13.428;2022-07-12T12:00:43;32.63;;;30.33;;
3943;SDS011;1986;52.546;13.428;2022-07-12T12:03:15;33.20;;;30.90;;
3943;SDS011;1986;52.546;13.428;2022-07-12T12:05:43;32.40;;;30.17;;
3943;SDS011;1986;52.546;13.428;2022-07-12T12:08:11;32.60;;;30.30;;
3943;SDS011;1986;52.546;13.428;2022-07-12T12:10:40;32.50;;;30.20;;
3943;SDS011;1986;52.546;13.428;2022-07-12T12:13:13;32.20;;;29.90;;
3943;SDS011;1986;52.546;13.428;2022-07-12T12:15:48;33.87;;;31.47;;
3943;SDS011;1986;52.546;13.428;2022-07-12T12:18:26;34.00;;;31.60;;
3943;SDS011;1986;52.546;13.428;2022-07-12T12:20:56;32.20;;;29.90;;
3943;SDS011;1986;52.546;13.428;2022-07-12T12:23:24;33.03;;;30.50;;
3943;SDS011;1986;52.546;13.428;2022-07-12T12:25:52;35.87;;;33.13;;
3943;SDS011;1986;52.546;13.428;2022-07-12T12:28:41;36.33;;;33.50;;
3943;SDS011;1986;52.546;13.428;2022-07-12T12:31:09;36.80;;;34.20;;
3943;SDS011;1986;52.546;13.428;2022-07-12T12:33:38;34.63;;;32.23;;
3943;SDS011;1986;52.546;13.428;2022-07-12T12:36:14;36.27;;;33.77;;
3943;SDS011;1986;52.546;13.428;2022-07-12T12:38:49;34.20;;;31.80;;
3943;SDS011;1986;52.546;13.428;2022-07-12T12:41:18;34.63;;;32.23;;
3943;SDS011;1986;52.546;13.428;2022-07-12T12:43:55;35.33;;;32.93;;
3943;SDS011;1986;52.546;13.428;2022-07-12T12:49:12;34.40;;;32.10;;
3943;SDS011;1986;52.546;13.428;2022-07-12T12:51:52;37.20;;;34.70;;
3943;SDS011;1986;52.546;13.428;2022-07-12T12:54:36;35.83;;;33.33;;
3943;SDS011;1986;52.546;13.428;2022-07-12T12:57:03;35.53;;;33.07;;
3943;SDS011;1986;52.546;13.428;2022-07-12T12:59:33;35.63;;;33.13;;
3943;SDS011;1986;52.546;13.428;2022-07-12T13:02:00;35.83;;;33.33;;
3943;SDS011;1986;52.546;13.428;2022-07-12T13:04:28;36.67;;;34.17;;
3943;SDS011;1986;52.546;13.428;2022-07-12T13:06:55;36.00;;;33.60;;
3943;SDS011;1986;52.546;13.428;2022-07-12T13:09:23;35.40;;;33.00;;
3943;SDS011;1986;52.546;13.428;2022-07-12T13:11:50;35.63;;;33.13;;
3943;SDS011;1986;52.546;13.428;2022-07-12T13:14:20;35.97;;;33.57;;
3943;SDS011;1986;52.546;13.428;2022-07-12T13:16:48;35.63;;;33.13;;
3943;SDS011;1986;52.546;13.428;2022-07-12T13:19:15;37.23;;;34.63;;
3943;SDS011;1986;52.546;13.428;2022-07-12T13:21:42;35.40;;;33.00;;
3943;SDS011;1986;52.546;13.428;2022-07-12T13:24:09;35.83;;;33.43;;
3943;SDS011;1986;52.546;13.428;2022-07-12T13:26:36;36.43;;;34.03;;
3943;SDS011;1986;52.546;13.428;2022-07-12T13:29:03;37.20;;;34.70;;
3943;SDS011;1986;52.546;13.428;2022-07-12T13:31:30;37.10;;;34.60;;
3943;SDS011;1986;52.546;13.428;2022-07-12T13:33:59;35.83;;;33.33;;
3943;SDS011;1986;52.546;13.428;2022-07-12T13:36:25;36.67;;;34.17;;
3943;SDS011;1986;52.546;13.428;2022-07-12T13:38:53;37.43;;;34.03;;
3943;SDS011;1986;52.546;13.428;2022-07-12T13:41:20;37.30;;;34.70;;
3943;SDS011;1986;52.546;13.428;2022-07-12T13:43:47;36.47;;;33.97;;
3943;SDS011;1986;52.546;13.428;2022-07-12T13:46:14;38.00;;;35.40;;
3943;SDS011;1986;52.546;13.428;2022-07-12T13:48:41;35.77;;;33.27;;
3943;SDS011;1986;52.546;13.428;2022-07-12T13:51:11;34.30;;;32.00;;
3943;SDS011;1986;52.546;13.428;2022-07-12T13:53:40;34.43;;;32.03;;
3943;SDS011;1986;52.546;13.428;2022-07-12T13:56:07;34.70;;;32.30;;
3943;SDS011;1986;52.546;13.428;2022-07-12T13:58:36;35.70;;;33.23;;
3943;SDS011;1986;52.546;13.428;2022-07-12T14:01:03;35.53;;;33.13;;
3943;SDS011;1986;52.546;13.428;2022-07-12T14:03:31;33.63;;;31.27;;
3943;SDS011;1986;52.546;13.428;2022-07-12T14:05:58;33.17;;;30.77;;
3943;SDS011;1986;52.546;13.428;2022-07-12T14:08:27;33.97;;;31.57;;
3943;SDS011;1986;52.546;13.428;2022-07-12T14:10:56;33.10;;;30.70;;
3943;SDS011;1986;52.546;13.428;2022-07-12T14:13:24;32.23;;;29.93;;
3943;SDS011;1986;52.546;13.428;2022-07-12T14:15:51;33.40;;;31.00;;
3943;SDS011;1986;52.546;13.428;2022-07-12T14:18:18;34.40;;;32.00;;
3943;SDS011;1986;52.546;13.428;2022-07-12T14:20:46;32.03;;;29.73;;
3943;SDS011;1986;52.546;13.428;2022-07-12T14:23:13;32.30;;;29.90;;
3943;SDS011;1986;52.546;13.428;2022-07-12T14:25:41;34.20;;;31.80;;
3943;SDS011;1986;52.546;13.428;2022-07-12T14:28:10;33.63;;;31.23;;
3943;SDS011;1986;52.546;13.428;2022-07-12T14:30:37;33.37;;;30.97;;
3943;SDS011;1986;52.546;13.428;2022-07-12T14:33:04;33.70;;;31.30;;
3943;SDS011;1986;52.546;13.428;2022-07-12T14:35:30;35.10;;;32.63;;
3943;SDS011;1986;52.546;13.428;2022-07-12T14:37:57;34.00;;;31.60;;
3943;SDS011;1986;52.546;13.428;2022-07-12T14:40:30;31.87;;;29.57;;
3943;SDS011;1986;52.546;13.428;2022-07-12T14:42:59;33.37;;;30.97;;
3943;SDS011;1986;52.546;13.428;2022-07-12T14:45:26;33.40;;;30.90;;
3943;SDS011;1986;52.546;13.428;2022-07-12T14:47:55;33.10;;;30.77;;
3943;SDS011;1986;52.546;13.428;2022-07-12T14:50:22;32.93;;;30.53;;
3943;SDS011;1986;52.546;13.428;2022-07-12T14:52:49;33.13;;;30.83;;